METAR AND TAF INFORMATION
METAR FOR SEGS
ADDS - METARS form results

(1638 UTC 05 July 2020)
Data provider http://aviationweather.gov/metar/data/
 
METAR text: SEGS 051600Z 16013KT FEW020 SCT080 24/18 Q1013 A2993
Conditions at: SEGS (SAN CRISTOBAL , EC) observed 1600 UTC 05 July 2020
Temperature: 24.0°C (75°F)
Dewpoint: 18.0°C (64°F) [RH = 69%]
Pressure (altimeter): 29.91 inches Hg (1013.0 mb)
Winds: from the SSE (160 degrees) at 15 MPH (13 knots; 6.7 m/s)
Visibility: missing
Ceiling: at least 12,000 feet AGL
Clouds: few clouds at 2000 feet AGL
scattered clouds at 8000 feet AGL
Weather: no significant weather observed at this time

 AIRPORT MAP

 RUNWAY INFORMATION
Runway 14 Runway length 7876 ft Runway width 115 ft
Runway elevation 145 ft Runway displaced threshold 0 ft Runway heading 144
Runway 32 Runway length 7876 ft Runway width 115 ft
Runway elevation 207 ft Runway displaced threshold 0 ft Runway heading 324

 AIRPORT FREQUENCIES
Type TWR Name TWR Frequency 122.2 MHZ

 AIRPORT NEAR NAVIGATION AIDS
Type NDB Name Galapagos Frequency 272 KHZ
Type VOR-DME Name Galapagos Frequency 112300 KHZ